sensor_id;sensor_type;location;lat;lon;timestamp;temperature;humidity
13221;DHT22;6675;48.128;11.478;2024-03-08T00:01:48;1.20;30.40
13221;DHT22;6675;48.128;11.478;2024-03-08T00:06:41;1.10;31.50
13221;DHT22;6675;48.128;11.478;2024-03-08T00:11:36;1.00;32.60
13221;DHT22;6675;48.128;11.478;2024-03-08T00:14:01;1.10;22.60
13221;DHT22;6675;48.128;11.478;2024-03-08T00:21:19;1.30;34.30
13221;DHT22;6675;48.128;11.478;2024-03-08T00:23:44;0.70;32.90
13221;DHT22;6675;48.128;11.478;2024-03-08T00:26:10;0.70;23.50
13221;DHT22;6675;48.128;11.478;2024-03-08T00:28:36;-0.60;34.00
13221;DHT22;6675;48.128;11.478;2024-03-08T00:35:54;0.70;35.40
13221;DHT22;6675;48.128;11.478;2024-03-08T00:45:37;0.60;37.80
13221;DHT22;6675;48.128;11.478;2024-03-08T00:48:03;1.30;38.90
13221;DHT22;6675;48.128;11.478;2024-03-08T00:52:56;-0.40;37.60
13221;DHT22;6675;48.128;11.478;2024-03-08T00:55:22;0.60;27.10
13221;DHT22;6675;48.128;11.478;2024-03-08T00:57:48;0.70;28.30
13221;DHT22;6675;48.128;11.478;2024-03-08T01:00:13;0.20;27.80
13221;DHT22;6675;48.128;11.478;2024-03-08T01:02:40;0.40;29.60
13221;DHT22;6675;48.128;11.478;2024-03-08T01:05:06;0.80;30.00
13221;DHT22;6675;48.128;11.478;2024-03-08T01:07:33;1.50;41.60
13221;DHT22;6675;48.128;11.478;2024-03-08T01:09:59;0.80;41.60
13221;DHT22;6675;48.128;11.478;2024-03-08T01:14:52;1.00;44.00
13221;DHT22;6675;48.128;11.478;2024-03-08T01:17:17;0.60;44.00
13221;DHT22;6675;48.128;11.478;2024-03-08T01:22:10;0.60;31.60
13221;DHT22;6675;48.128;11.478;2024-03-08T01:24:36;0.60;42.80
13221;DHT22;6675;48.128;11.478;2024-03-08T01:27:02;0.30;30.40
13221;DHT22;6675;48.128;11.478;2024-03-08T01:31:57;0.00;44.30
13221;DHT22;6675;48.128;11.478;2024-03-08T01:36:54;0.40;43.80
13221;DHT22;6675;48.128;11.478;2024-03-08T01:39:21;0.00;31.50
13221;DHT22;6675;48.128;11.478;2024-03-08T01:41:47;0.70;46.20
13221;DHT22;6675;48.128;11.478;2024-03-08T01:46:46;0.30;44.40
13221;DHT22;6675;48.128;11.478;2024-03-08T01:52:50;0.60;34.60
13221;DHT22;6675;48.128;11.478;2024-03-08T01:55:16;1.00;48.10
13221;DHT22;6675;48.128;11.478;2024-03-08T01:57:55;0.70;47.00
13221;DHT22;6675;48.128;11.478;2024-03-08T02:00:21;0.60;34.30
13221;DHT22;6675;48.128;11.478;2024-03-08T02:02:49;0.80;47.80
13221;DHT22;6675;48.128;11.478;2024-03-08T02:05:16;0.70;35.20
13221;DHT22;6675;48.128;11.478;2024-03-08T02:07:43;0.80;35.30
13221;DHT22;6675;48.128;11.478;2024-03-08T02:10:12;0.80;35.50
13221;DHT22;6675;48.128;11.478;2024-03-08T02:15:07;0.00;47.80
13221;DHT22;6675;48.128;11.478;2024-03-08T02:17:33;0.00;47.60
13221;DHT22;6675;48.128;11.478;2024-03-08T02:24:55;0.60;36.20
13221;DHT22;6675;48.128;11.478;2024-03-08T02:27:24;-2.40;46.50
13221;DHT22;6675;48.128;11.478;2024-03-08T02:32:22;0.60;35.00
13221;DHT22;6675;48.128;11.478;2024-03-08T02:37:15;0.70;47.80
13221;DHT22;6675;48.128;11.478;2024-03-08T02:39:40;0.80;48.00
13221;DHT22;6675;48.128;11.478;2024-03-08T02:42:06;-0.10;47.00
13221;DHT22;6675;48.128;11.478;2024-03-08T02:44:32;0.90;36.10
13221;DHT22;6675;48.128;11.478;2024-03-08T02:46:59;0.70;35.40
13221;DHT22;6675;48.128;11.478;2024-03-08T02:54:18;0.40;35.50
13221;DHT22;6675;48.128;11.478;2024-03-08T03:01:38;0.70;48.40
13221;DHT22;6675;48.128;11.478;2024-03-08T03:04:04;0.30;47.40
13221;DHT22;6675;48.128;11.478;2024-03-08T03:06:30;-0.20;46.80
13221;DHT22;6675;48.128;11.478;2024-03-08T03:08:56;1.10;48.90
13221;DHT22;6675;48.128;11.478;2024-03-08T03:11:23;-0.20;35.80
13221;DHT22;6675;48.128;11.478;2024-03-08T03:16:20;0.40;49.60
13221;DHT22;6675;48.128;11.478;2024-03-08T03:18:46;1.10;51.20
13221;DHT22;6675;48.128;11.478;2024-03-08T03:21:13;0.80;53.30
13221;DHT22;6675;48.128;11.478;2024-03-08T03:23:39;0.80;56.20
13221;DHT22;6675;48.128;11.478;2024-03-08T03:26:05;0.30;44.20
13221;DHT22;6675;48.128;11.478;2024-03-08T03:28:32;0.40;43.60
13221;DHT22;6675;48.128;11.478;2024-03-08T03:30:59;0.90;44.60
13221;DHT22;6675;48.128;11.478;2024-03-08T03:33:25;0.40;54.60
13221;DHT22;6675;48.128;11.478;2024-03-08T03:35:50;0.70;43.20
13221;DHT22;6675;48.128;11.478;2024-03-08T03:38:17;0.40;41.30
13221;DHT22;6675;48.128;11.478;2024-03-08T03:45:39;0.90;38.60
13221;DHT22;6675;48.128;11.478;2024-03-08T03:48:06;0.50;37.60
13221;DHT22;6675;48.128;11.478;2024-03-08T03:50:32;1.20;37.90
13221;DHT22;6675;48.128;11.478;2024-03-08T03:52:59;0.70;48.00
13221;DHT22;6675;48.128;11.478;2024-03-08T03:55:25;1.70;48.80
13221;DHT22;6675;48.128;11.478;2024-03-08T03:57:51;1.10;35.80
13221;DHT22;6675;48.128;11.478;2024-03-08T04:00:17;0.50;46.70
13221;DHT22;6675;48.128;11.478;2024-03-08T04:05:10;1.50;47.30
13221;DHT22;6675;48.128;11.478;2024-03-08T04:07:37;1.40;46.60
13221;DHT22;6675;48.128;11.478;2024-03-08T04:10:03;0.80;34.60
13221;DHT22;6675;48.128;11.478;2024-03-08T04:12:32;0.10;44.90
13221;DHT22;6675;48.128;11.478;2024-03-08T04:14:57;1.00;32.90
13221;DHT22;6675;48.128;11.478;2024-03-08T04:17:23;1.30;44.40
13221;DHT22;6675;48.128;11.478;2024-03-08T04:19:52;1.30;41.90
13221;DHT22;6675;48.128;11.478;2024-03-08T04:22:18;0.80;32.20
13221;DHT22;6675;48.128;11.478;2024-03-08T04:24:44;1.40;43.00
13221;DHT22;6675;48.128;11.478;2024-03-08T04:27:10;1.30;31.20
13221;DHT22;6675;48.128;11.478;2024-03-08T04:29:35;2.00;43.30
13221;DHT22;6675;48.128;11.478;2024-03-08T04:32:04;0.50;30.30
13221;DHT22;6675;48.128;11.478;2024-03-08T04:34:30;1.20;31.50
13221;DHT22;6675;48.128;11.478;2024-03-08T04:36:59;1.00;43.20
13221;DHT22;6675;48.128;11.478;2024-03-08T04:39:25;1.00;31.40
13221;DHT22;6675;48.128;11.478;2024-03-08T04:41:54;-1.10;39.70
13221;DHT22;6675;48.128;11.478;2024-03-08T04:44:20;1.10;31.60
13221;DHT22;6675;48.128;11.478;2024-03-08T04:46:45;0.30;31.40
13221;DHT22;6675;48.128;11.478;2024-03-08T04:49:12;0.90;44.20
13221;DHT22;6675;48.128;11.478;2024-03-08T04:51:38;0.60;44.40
13221;DHT22;6675;48.128;11.478;2024-03-08T04:54:04;1.10;32.70
13221;DHT22;6675;48.128;11.478;2024-03-08T04:58:56;0.70;30.60
13221;DHT22;6675;48.128;11.478;2024-03-08T05:01:22;0.80;31.60
13221;DHT22;6675;48.128;11.478;2024-03-08T05:06:16;0.70;43.30
13221;DHT22;6675;48.128;11.478;2024-03-08T05:08:41;0.10;33.10
13221;DHT22;6675;48.128;11.478;2024-03-08T05:11:07;-0.10;44.00
13221;DHT22;6675;48.128;11.478;2024-03-08T05:13:33;0.70;33.60
13221;DHT22;6675;48.128;11.478;2024-03-08T05:15:59;-0.10;46.10
13221;DHT22;6675;48.128;11.478;2024-03-08T05:18:25;0.50;45.10
13221;DHT22;6675;48.128;11.478;2024-03-08T05:25:45;0.40;33.20
13221;DHT22;6675;48.128;11.478;2024-03-08T05:28:12;0.20;46.20
13221;DHT22;6675;48.128;11.478;2024-03-08T05:33:04;0.40;32.80
13221;DHT22;6675;48.128;11.478;2024-03-08T05:42:49;0.40;45.50
13221;DHT22;6675;48.128;11.478;2024-03-08T05:47:47;0.50;45.20
13221;DHT22;6675;48.128;11.478;2024-03-08T05:55:10;0.60;45.20
13221;DHT22;6675;48.128;11.478;2024-03-08T06:02:38;0.30;31.70
13221;DHT22;6675;48.128;11.478;2024-03-08T06:05:10;0.30;42.90
13221;DHT22;6675;48.128;11.478;2024-03-08T06:07:36;0.50;31.60
13221;DHT22;6675;48.128;11.478;2024-03-08T06:10:07;0.90;43.90
13221;DHT22;6675;48.128;11.478;2024-03-08T06:12:32;0.50;31.90
13221;DHT22;6675;48.128;11.478;2024-03-08T06:15:02;0.80;31.90
13221;DHT22;6675;48.128;11.478;2024-03-08T06:24:47;0.50;30.80
13221;DHT22;6675;48.128;11.478;2024-03-08T06:27:13;1.10;41.30
13221;DHT22;6675;48.128;11.478;2024-03-08T06:29:39;1.40;32.90
13221;DHT22;6675;48.128;11.478;2024-03-08T06:32:05;1.00;41.50
13221;DHT22;6675;48.128;11.478;2024-03-08T06:34:33;0.90;29.80
13221;DHT22;6675;48.128;11.478;2024-03-08T06:37:00;0.30;29.30
13221;DHT22;6675;48.128;11.478;2024-03-08T06:39:27;0.30;29.30
13221;DHT22;6675;48.128;11.478;2024-03-08T06:41:54;1.30;40.70
13221;DHT22;6675;48.128;11.478;2024-03-08T06:44:19;1.40;37.50
13221;DHT22;6675;48.128;11.478;2024-03-08T06:46:47;0.90;26.50
13221;DHT22;6675;48.128;11.478;2024-03-08T06:49:13;1.40;25.70
13221;DHT22;6675;48.128;11.478;2024-03-08T06:51:41;2.90;34.40
13221;DHT22;6675;48.128;11.478;2024-03-08T06:54:06;1.20;22.40
13221;DHT22;6675;48.128;11.478;2024-03-08T06:56:34;2.70;30.70
13221;DHT22;6675;48.128;11.478;2024-03-08T06:59:00;1.60;21.90
13221;DHT22;6675;48.128;11.478;2024-03-08T07:03:59;2.90;27.20
13221;DHT22;6675;48.128;11.478;2024-03-08T07:08:54;3.00;26.00
13221;DHT22;6675;48.128;11.478;2024-03-08T07:13:45;3.70;25.40
13221;DHT22;6675;48.128;11.478;2024-03-08T07:16:11;2.60;22.70
13221;DHT22;6675;48.128;11.478;2024-03-08T07:18:37;2.60;21.50
13221;DHT22;6675;48.128;11.478;2024-03-08T07:21:05;1.50;11.70
13221;DHT22;6675;48.128;11.478;2024-03-08T07:23:31;2.10;11.60
13221;DHT22;6675;48.128;11.478;2024-03-08T07:26:15;2.00;18.00
13221;DHT22;6675;48.128;11.478;2024-03-08T07:28:41;2.00;18.10
13221;DHT22;6675;48.128;11.478;2024-03-08T07:31:07;2.60;8.90
13221;DHT22;6675;48.128;11.478;2024-03-08T07:33:51;4.20;17.10
13221;DHT22;6675;48.128;11.478;2024-03-08T07:36:21;0.20;14.20
13221;DHT22;6675;48.128;11.478;2024-03-08T07:38:50;3.20;13.70
13221;DHT22;6675;48.128;11.478;2024-03-08T07:41:15;2.50;13.40
13221;DHT22;6675;48.128;11.478;2024-03-08T07:43:42;0.30;10.40
13221;DHT22;6675;48.128;11.478;2024-03-08T07:51:02;3.70;10.10
13221;DHT22;6675;48.128;11.478;2024-03-08T07:53:28;3.70;1.00
13221;DHT22;6675;48.128;11.478;2024-03-08T07:55:54;0.90;5.40
13221;DHT22;6675;48.128;11.478;2024-03-08T07:58:20;3.80;1.00
13221;DHT22;6675;48.128;11.478;2024-03-08T08:00:45;4.00;1.00
13221;DHT22;6675;48.128;11.478;2024-03-08T08:03:11;1.90;4.40
13221;DHT22;6675;48.128;11.478;2024-03-08T08:08:13;4.10;1.00
13221;DHT22;6675;48.128;11.478;2024-03-08T08:10:38;4.20;1.00
13221;DHT22;6675;48.128;11.478;2024-03-08T08:13:04;4.40;1.00
13221;DHT22;6675;48.128;11.478;2024-03-08T08:15:32;3.90;1.00
13221;DHT22;6675;48.128;11.478;2024-03-08T08:18:01;2.70;1.00
13221;DHT22;6675;48.128;11.478;2024-03-08T08:20:28;1.90;1.00
13221;DHT22;6675;48.128;11.478;2024-03-08T08:25:20;5.20;1.00
13221;DHT22;6675;48.128;11.478;2024-03-08T08:27:48;6.10;1.10
13221;DHT22;6675;48.128;11.478;2024-03-08T08:30:13;5.90;1.00
13221;DHT22;6675;48.128;11.478;2024-03-08T08:32:39;5.70;1.00
13221;DHT22;6675;48.128;11.478;2024-03-08T08:37:32;6.20;1.00
13221;DHT22;6675;48.128;11.478;2024-03-08T08:39:58;8.50;1.00
13221;DHT22;6675;48.128;11.478;2024-03-08T08:42:24;7.90;1.00
13221;DHT22;6675;48.128;11.478;2024-03-08T08:44:49;12.50;1.00
13221;DHT22;6675;48.128;11.478;2024-03-08T08:47:16;11.10;1.00
13221;DHT22;6675;48.128;11.478;2024-03-08T08:49:44;12.00;1.00
13221;DHT22;6675;48.128;11.478;2024-03-08T08:52:11;11.90;1.00
13221;DHT22;6675;48.128;11.478;2024-03-08T08:54:37;12.50;1.00
13221;DHT22;6675;48.128;11.478;2024-03-08T08:57:02;13.60;1.00
13221;DHT22;6675;48.128;11.478;2024-03-08T08:59:33;13.40;1.00
13221;DHT22;6675;48.128;11.478;2024-03-08T09:02:01;13.90;1.00
13221;DHT22;6675;48.128;11.478;2024-03-08T09:04:27;14.40;1.00
13221;DHT22;6675;48.128;11.478;2024-03-08T09:06:54;14.10;1.00
13221;DHT22;6675;48.128;11.478;2024-03-08T09:09:20;16.50;1.00
13221;DHT22;6675;48.128;11.478;2024-03-08T09:11:47;16.60;1.00
13221;DHT22;6675;48.128;11.478;2024-03-08T09:14:13;17.90;1.00
13221;DHT22;6675;48.128;11.478;2024-03-08T09:16:39;18.60;1.00
13221;DHT22;6675;48.128;11.478;2024-03-08T09:19:05;19.20;1.00
13221;DHT22;6675;48.128;11.478;2024-03-08T09:21:32;18.70;1.00
13221;DHT22;6675;48.128;11.478;2024-03-08T09:23:58;19.20;1.00
13221;DHT22;6675;48.128;11.478;2024-03-08T09:26:24;19.70;1.00
13221;DHT22;6675;48.128;11.478;2024-03-08T09:28:49;21.20;1.00
13221;DHT22;6675;48.128;11.478;2024-03-08T09:31:15;20.70;1.00
13221;DHT22;6675;48.128;11.478;2024-03-08T09:33:42;21.70;1.00
13221;DHT22;6675;48.128;11.478;2024-03-08T09:36:08;21.50;1.00
13221;DHT22;6675;48.128;11.478;2024-03-08T09:38:33;21.70;1.00
13221;DHT22;6675;48.128;11.478;2024-03-08T09:41:02;21.10;1.00
13221;DHT22;6675;48.128;11.478;2024-03-08T09:43:29;20.20;1.00
13221;DHT22;6675;48.128;11.478;2024-03-08T09:45:56;20.30;1.00
13221;DHT22;6675;48.128;11.478;2024-03-08T09:48:23;21.20;1.00
13221;DHT22;6675;48.128;11.478;2024-03-08T09:50:48;21.70;1.00
13221;DHT22;6675;48.128;11.478;2024-03-08T09:53:15;23.10;1.00
13221;DHT22;6675;48.128;11.478;2024-03-08T09:55:40;23.40;1.00
13221;DHT22;6675;48.128;11.478;2024-03-08T09:58:11;23.90;1.00
13221;DHT22;6675;48.128;11.478;2024-03-08T10:00:55;24.20;1.00
13221;DHT22;6675;48.128;11.478;2024-03-08T10:03:23;24.90;1.00
13221;DHT22;6675;48.128;11.478;2024-03-08T10:05:51;25.20;1.00
13221;DHT22;6675;48.128;11.478;2024-03-08T10:08:17;25.60;1.00
13221;DHT22;6675;48.128;11.478;2024-03-08T10:10:43;25.80;1.00
13221;DHT22;6675;48.128;11.478;2024-03-08T10:13:09;27.00;1.00
13221;DHT22;6675;48.128;11.478;2024-03-08T10:15:36;27.20;1.00
13221;DHT22;6675;48.128;11.478;2024-03-08T10:18:03;28.00;1.00
13221;DHT22;6675;48.128;11.478;2024-03-08T10:20:30;26.20;1.00
13221;DHT22;6675;48.128;11.478;2024-03-08T10:23:03;25.00;1.00
13221;DHT22;6675;48.128;11.478;2024-03-08T10:25:34;24.90;1.00
13221;DHT22;6675;48.128;11.478;2024-03-08T10:27:59;24.90;1.00
13221;DHT22;6675;48.128;11.478;2024-03-08T10:30:25;25.00;1.00
13221;DHT22;6675;48.128;11.478;2024-03-08T10:32:51;25.60;1.00
13221;DHT22;6675;48.128;11.478;2024-03-08T10:35:17;25.70;1.00
13221;DHT22;6675;48.128;11.478;2024-03-08T10:37:47;26.10;1.00
13221;DHT22;6675;48.128;11.478;2024-03-08T10:40:17;26.10;1.00
13221;DHT22;6675;48.128;11.478;2024-03-08T10:43:01;26.60;1.00
13221;DHT22;6675;48.128;11.478;2024-03-08T10:45:39;26.80;1.00
13221;DHT22;6675;48.128;11.478;2024-03-08T10:48:30;27.20;1.00
13221;DHT22;6675;48.128;11.478;2024-03-08T10:51:04;26.90;1.00
13221;DHT22;6675;48.128;11.478;2024-03-08T10:53:30;27.20;1.00
13221;DHT22;6675;48.128;11.478;2024-03-08T10:55:58;27.20;1.00
13221;DHT22;6675;48.128;11.478;2024-03-08T10:58:26;26.00;1.00
13221;DHT22;6675;48.128;11.478;2024-03-08T11:00:55;26.00;1.00
13221;DHT22;6675;48.128;11.478;2024-03-08T11:06:17;26.50;1.00
13221;DHT22;6675;48.128;11.478;2024-03-08T11:08:44;26.30;1.00
13221;DHT22;6675;48.128;11.478;2024-03-08T11:11:32;26.70;1.00
13221;DHT22;6675;48.128;11.478;2024-03-08T11:14:00;27.30;1.00
13221;DHT22;6675;48.128;11.478;2024-03-08T11:21:36;28.70;1.00
13221;DHT22;6675;48.128;11.478;2024-03-08T11:24:13;27.80;1.00
13221;DHT22;6675;48.128;11.478;2024-03-08T11:26:39;27.90;1.00
13221;DHT22;6675;48.128;11.478;2024-03-08T11:31:52;26.80;1.00
13221;DHT22;6675;48.128;11.478;2024-03-08T11:34:19;26.50;1.00
13221;DHT22;6675;48.128;11.478;2024-03-08T11:36:48;26.50;1.00
13221;DHT22;6675;48.128;11.478;2024-03-08T11:39:13;27.00;1.00
13221;DHT22;6675;48.128;11.478;2024-03-08T11:41:40;26.30;1.00
13221;DHT22;6675;48.128;11.478;2024-03-08T11:44:07;27.40;1.00
13221;DHT22;6675;48.128;11.478;2024-03-08T11:46:33;26.90;1.00
13221;DHT22;6675;48.128;11.478;2024-03-08T11:48:59;26.10;1.00
13221;DHT22;6675;48.128;11.478;2024-03-08T11:51:26;25.90;1.00
13221;DHT22;6675;48.128;11.478;2024-03-08T11:53:52;25.80;1.00
13221;DHT22;6675;48.128;11.478;2024-03-08T11:56:18;26.20;1.00
13221;DHT22;6675;48.128;11.478;2024-03-08T11:58:54;26.60;1.00
13221;DHT22;6675;48.128;11.478;2024-03-08T12:01:23;26.10;1.00
13221;DHT22;6675;48.128;11.478;2024-03-08T12:03:56;26.40;1.00
13221;DHT22;6675;48.128;11.478;2024-03-08T12:06:25;26.80;1.00
13221;DHT22;6675;48.128;11.478;2024-03-08T12:08:52;27.30;1.00
13221;DHT22;6675;48.128;11.478;2024-03-08T12:11:19;25.80;1.00
13221;DHT22;6675;48.128;11.478;2024-03-08T12:13:49;25.00;1.00
13221;DHT22;6675;48.128;11.478;2024-03-08T12:16:17;25.00;1.00
13221;DHT22;6675;48.128;11.478;2024-03-08T12:18:47;25.10;1.00
13221;DHT22;6675;48.128;11.478;2024-03-08T12:21:14;25.70;1.00
13221;DHT22;6675;48.128;11.478;2024-03-08T12:23:44;25.20;1.00
13221;DHT22;6675;48.128;11.478;2024-03-08T12:28:42;25.10;1.00
13221;DHT22;6675;48.128;11.478;2024-03-08T12:31:13;25.10;1.00
13221;DHT22;6675;48.128;11.478;2024-03-08T12:33:53;23.30;1.00
13221;DHT22;6675;48.128;11.478;2024-03-08T12:36:20;22.70;1.00
13221;DHT22;6675;48.128;11.478;2024-03-08T12:38:46;22.80;1.00
13221;DHT22;6675;48.128;11.478;2024-03-08T12:41:16;23.50;1.00
13221;DHT22;6675;48.128;11.478;2024-03-08T12:43:43;23.30;1.00
13221;DHT22;6675;48.128;11.478;2024-03-08T12:46:20;23.30;1.00
13221;DHT22;6675;48.128;11.478;2024-03-08T12:48:46;23.20;1.00
13221;DHT22;6675;48.128;11.478;2024-03-08T12:51:16;23.00;1.00
13221;DHT22;6675;48.128;11.478;2024-03-08T12:53:43;22.50;1.00
13221;DHT22;6675;48.128;11.478;2024-03-08T12:56:29;22.70;1.00
13221;DHT22;6675;48.128;11.478;2024-03-08T12:58:55;23.70;1.00
13221;DHT22;6675;48.128;11.478;2024-03-08T13:01:20;24.30;1.00
13221;DHT22;6675;48.128;11.478;2024-03-08T13:03:46;24.30;1.00
13221;DHT22;6675;48.128;11.478;2024-03-08T13:06:11;24.90;1.00
13221;DHT22;6675;48.128;11.478;2024-03-08T13:08:38;24.90;1.00
13221;DHT22;6675;48.128;11.478;2024-03-08T13:11:10;24.70;1.00
13221;DHT22;6675;48.128;11.478;2024-03-08T13:13:37;24.60;1.00
13221;DHT22;6675;48.128;11.478;2024-03-08T13:16:05;24.60;1.00
13221;DHT22;6675;48.128;11.478;2024-03-08T13:18:34;24.90;1.00
13221;DHT22;6675;48.128;11.478;2024-03-08T13:20:59;25.10;1.00
13221;DHT22;6675;48.128;11.478;2024-03-08T13:23:30;25.60;1.00
13221;DHT22;6675;48.128;11.478;2024-03-08T13:25:56;25.80;1.00
13221;DHT22;6675;48.128;11.478;2024-03-08T13:28:22;25.10;1.00
13221;DHT22;6675;48.128;11.478;2024-03-08T13:30:48;25.30;1.00
13221;DHT22;6675;48.128;11.478;2024-03-08T13:33:14;24.10;1.00
13221;DHT22;6675;48.128;11.478;2024-03-08T13:35:40;24.00;1.00
13221;DHT22;6675;48.128;11.478;2024-03-08T13:38:06;23.80;1.00
13221;DHT22;6675;48.128;11.478;2024-03-08T13:40:34;24.30;1.00
13221;DHT22;6675;48.128;11.478;2024-03-08T13:43:00;24.40;1.00
13221;DHT22;6675;48.128;11.478;2024-03-08T13:45:26;24.50;1.00
13221;DHT22;6675;48.128;11.478;2024-03-08T13:47:53;25.50;1.00
13221;DHT22;6675;48.128;11.478;2024-03-08T13:50:19;24.70;1.00
13221;DHT22;6675;48.128;11.478;2024-03-08T13:52:49;23.70;1.00
13221;DHT22;6675;48.128;11.478;2024-03-08T13:55:20;23.70;1.00
13221;DHT22;6675;48.128;11.478;2024-03-08T13:57:48;22.70;1.00
13221;DHT22;6675;48.128;11.478;2024-03-08T14:00:14;22.20;1.00
13221;DHT22;6675;48.128;11.478;2024-03-08T14:02:40;22.30;1.00
13221;DHT22;6675;48.128;11.478;2024-03-08T14:05:07;22.00;1.00
13221;DHT22;6675;48.128;11.478;2024-03-08T14:07:37;22.60;1.00
13221;DHT22;6675;48.128;11.478;2024-03-08T14:10:04;22.70;1.00
13221;DHT22;6675;48.128;11.478;2024-03-08T14:12:32;22.10;1.00
13221;DHT22;6675;48.128;11.478;2024-03-08T14:14:57;22.20;1.00
13221;DHT22;6675;48.128;11.478;2024-03-08T14:17:26;22.20;1.00
13221;DHT22;6675;48.128;11.478;2024-03-08T14:19:53;21.60;1.00
13221;DHT22;6675;48.128;11.478;2024-03-08T14:22:20;21.40;1.00
13221;DHT22;6675;48.128;11.478;2024-03-08T14:24:45;21.10;1.00
13221;DHT22;6675;48.128;11.478;2024-03-08T14:27:11;21.10;1.00
13221;DHT22;6675;48.128;11.478;2024-03-08T14:32:04;20.60;1.00
13221;DHT22;6675;48.128;11.478;2024-03-08T14:34:32;19.50;1.00
13221;DHT22;6675;48.128;11.478;2024-03-08T14:36:59;19.60;1.00
13221;DHT22;6675;48.128;11.478;2024-03-08T14:39:25;19.40;1.00
13221;DHT22;6675;48.128;11.478;2024-03-08T14:41:55;19.00;1.00
13221;DHT22;6675;48.128;11.478;2024-03-08T14:44:21;19.00;1.00
13221;DHT22;6675;48.128;11.478;2024-03-08T14:46:55;18.90;1.00
13221;DHT22;6675;48.128;11.478;2024-03-08T14:49:22;18.80;1.00
13221;DHT22;6675;48.128;11.478;2024-03-08T14:51:47;18.90;1.00
13221;DHT22;6675;48.128;11.478;2024-03-08T14:54:13;18.40;1.00
13221;DHT22;6675;48.128;11.478;2024-03-08T14:56:39;18.10;1.00
13221;DHT22;6675;48.128;11.478;2024-03-08T14:59:08;18.20;1.00
13221;DHT22;6675;48.128;11.478;2024-03-08T15:01:35;17.70;1.00
13221;DHT22;6675;48.128;11.478;2024-03-08T15:04:02;17.40;1.00
13221;DHT22;6675;48.128;11.478;2024-03-08T15:06:37;17.10;1.00
13221;DHT22;6675;48.128;11.478;2024-03-08T15:09:04;17.70;1.00
13221;DHT22;6675;48.128;11.478;2024-03-08T15:11:40;17.80;1.00
13221;DHT22;6675;48.128;11.478;2024-03-08T15:14:06;17.40;1.00
13221;DHT22;6675;48.128;11.478;2024-03-08T15:16:36;16.20;1.00
13221;DHT22;6675;48.128;11.478;2024-03-08T15:19:02;15.60;1.00
13221;DHT22;6675;48.128;11.478;2024-03-08T15:21:30;15.70;1.00
13221;DHT22;6675;48.128;11.478;2024-03-08T15:23:56;15.10;1.00
13221;DHT22;6675;48.128;11.478;2024-03-08T15:26:21;14.30;1.00
13221;DHT22;6675;48.128;11.478;2024-03-08T15:28:47;14.20;1.00
13221;DHT22;6675;48.128;11.478;2024-03-08T15:31:16;13.70;1.00
13221;DHT22;6675;48.128;11.478;2024-03-08T15:33:42;13.50;1.00
13221;DHT22;6675;48.128;11.478;2024-03-08T15:36:11;12.40;1.00
13221;DHT22;6675;48.128;11.478;2024-03-08T15:38:39;13.40;1.00
13221;DHT22;6675;48.128;11.478;2024-03-08T15:41:05;13.40;1.00
13221;DHT22;6675;48.128;11.478;2024-03-08T15:43:38;12.70;1.00
13221;DHT22;6675;48.128;11.478;2024-03-08T15:46:05;12.60;1.00
13221;DHT22;6675;48.128;11.478;2024-03-08T15:48:34;12.40;1.00
13221;DHT22;6675;48.128;11.478;2024-03-08T15:51:04;12.00;1.00
13221;DHT22;6675;48.128;11.478;2024-03-08T15:53:38;12.40;1.00
13221;DHT22;6675;48.128;11.478;2024-03-08T15:56:04;11.30;1.00
13221;DHT22;6675;48.128;11.478;2024-03-08T15:58:37;11.40;1.00
13221;DHT22;6675;48.128;11.478;2024-03-08T16:01:03;11.40;1.00
13221;DHT22;6675;48.128;11.478;2024-03-08T16:03:32;11.40;1.00
13221;DHT22;6675;48.128;11.478;2024-03-08T16:05:58;11.70;1.00
13221;DHT22;6675;48.128;11.478;2024-03-08T16:08:24;11.10;1.00
13221;DHT22;6675;48.128;11.478;2024-03-08T16:10:51;11.30;1.00
13221;DHT22;6675;48.128;11.478;2024-03-08T16:13:20;11.30;1.00
13221;DHT22;6675;48.128;11.478;2024-03-08T16:15:48;9.60;1.00
13221;DHT22;6675;48.128;11.478;2024-03-08T16:18:14;10.90;1.00
13221;DHT22;6675;48.128;11.478;2024-03-08T16:20:40;11.00;1.00
13221;DHT22;6675;48.128;11.478;2024-03-08T16:23:07;10.60;1.00
13221;DHT22;6675;48.128;11.478;2024-03-08T16:25:36;11.70;1.00
13221;DHT22;6675;48.128;11.478;2024-03-08T16:28:02;9.20;1.00
13221;DHT22;6675;48.128;11.478;2024-03-08T16:30:28;11.30;1.00
13221;DHT22;6675;48.128;11.478;2024-03-08T16:32:57;9.40;1.00
13221;DHT22;6675;48.128;11.478;2024-03-08T16:35:23;11.50;1.00
13221;DHT22;6675;48.128;11.478;2024-03-08T16:37:49;9.30;1.00
13221;DHT22;6675;48.128;11.478;2024-03-08T16:40:16;9.00;1.00
13221;DHT22;6675;48.128;11.478;2024-03-08T16:42:46;9.50;1.00
13221;DHT22;6675;48.128;11.478;2024-03-08T16:45:22;8.10;1.00
13221;DHT22;6675;48.128;11.478;2024-03-08T16:47:48;9.30;1.00
13221;DHT22;6675;48.128;11.478;2024-03-08T16:50:17;9.20;1.00
13221;DHT22;6675;48.128;11.478;2024-03-08T16:52:44;8.70;1.00
13221;DHT22;6675;48.128;11.478;2024-03-08T16:55:10;9.00;1.00
13221;DHT22;6675;48.128;11.478;2024-03-08T16:57:45;8.20;1.00
13221;DHT22;6675;48.128;11.478;2024-03-08T17:00:12;8.50;1.00
13221;DHT22;6675;48.128;11.478;2024-03-08T17:02:39;8.60;1.00
13221;DHT22;6675;48.128;11.478;2024-03-08T17:05:04;8.40;1.00
13221;DHT22;6675;48.128;11.478;2024-03-08T17:07:30;9.60;1.00
13221;DHT22;6675;48.128;11.478;2024-03-08T17:09:57;7.80;1.00
13221;DHT22;6675;48.128;11.478;2024-03-08T17:12:23;7.60;1.00
13221;DHT22;6675;48.128;11.478;2024-03-08T17:14:49;9.30;1.00
13221;DHT22;6675;48.128;11.478;2024-03-08T17:17:15;7.80;1.00
13221;DHT22;6675;48.128;11.478;2024-03-08T17:19:42;9.20;1.00
13221;DHT22;6675;48.128;11.478;2024-03-08T17:22:08;7.50;1.00
13221;DHT22;6675;48.128;11.478;2024-03-08T17:24:35;6.10;1.00
13221;DHT22;6675;48.128;11.478;2024-03-08T17:27:01;7.00;1.00
13221;DHT22;6675;48.128;11.478;2024-03-08T17:29:26;7.40;1.00
13221;DHT22;6675;48.128;11.478;2024-03-08T17:31:52;5.50;1.00
13221;DHT22;6675;48.128;11.478;2024-03-08T17:34:18;7.10;1.00
13221;DHT22;6675;48.128;11.478;2024-03-08T17:36:45;7.10;1.00
13221;DHT22;6675;48.128;11.478;2024-03-08T17:39:14;6.50;1.00
13221;DHT22;6675;48.128;11.478;2024-03-08T17:41:46;5.70;1.00
13221;DHT22;6675;48.128;11.478;2024-03-08T17:44:15;6.50;1.00
13221;DHT22;6675;48.128;11.478;2024-03-08T17:46:42;8.10;1.00
13221;DHT22;6675;48.128;11.478;2024-03-08T17:49:08;6.10;1.00
13221;DHT22;6675;48.128;11.478;2024-03-08T17:51:35;8.30;1.00
13221;DHT22;6675;48.128;11.478;2024-03-08T17:54:00;6.20;1.00
13221;DHT22;6675;48.128;11.478;2024-03-08T17:56:27;6.10;1.00
13221;DHT22;6675;48.128;11.478;2024-03-08T17:58:53;6.90;1.00
13221;DHT22;6675;48.128;11.478;2024-03-08T18:01:19;5.90;1.00
13221;DHT22;6675;48.128;11.478;2024-03-08T18:03:44;6.10;1.00
13221;DHT22;6675;48.128;11.478;2024-03-08T18:06:10;6.10;1.00
13221;DHT22;6675;48.128;11.478;2024-03-08T18:08:36;5.90;1.00
13221;DHT22;6675;48.128;11.478;2024-03-08T18:11:02;6.00;1.00
13221;DHT22;6675;48.128;11.478;2024-03-08T18:13:28;5.70;1.00
13221;DHT22;6675;48.128;11.478;2024-03-08T18:15:57;5.30;1.00